sensor_id;sensor_type;location;lat;lon;timestamp;P1;durP1;ratioP1;P2;durP2;ratioP2
26864;SDS011;40618;51.166;10.322;2022-12-18T00:01:50;11.95;;;5.40;;
26864;SDS011;40618;51.166;10.322;2022-12-18T00:04:20;14.95;;;6.15;;
26864;SDS011;40618;51.166;10.322;2022-12-18T00:06:49;15.68;;;6.22;;
26864;SDS011;40618;51.166;10.322;2022-12-18T00:09:15;14.63;;;5.90;;
26864;SDS011;40618;51.166;10.322;2022-12-18T00:11:41;22.70;;;8.38;;
26864;SDS011;40618;51.166;10.322;2022-12-18T00:14:08;19.90;;;8.32;;
26864;SDS011;40618;51.166;10.322;2022-12-18T00:16:36;18.08;;;8.27;;
26864;SDS011;40618;51.166;10.322;2022-12-18T00:19:02;17.95;;;7.72;;
26864;SDS011;40618;51.166;10.322;2022-12-18T00:21:29;13.27;;;6.40;;
26864;SDS011;40618;51.166;10.322;2022-12-18T00:23:57;12.38;;;6.03;;
26864;SDS011;40618;51.166;10.322;2022-12-18T00:26:25;13.75;;;5.68;;
26864;SDS011;40618;51.166;10.322;2022-12-18T00:28:54;14.40;;;6.30;;
26864;SDS011;40618;51.166;10.322;2022-12-18T00:31:23;12.13;;;5.30;;
26864;SDS011;40618;51.166;10.322;2022-12-18T00:33:50;12.05;;;5.72;;
26864;SDS011;40618;51.166;10.322;2022-12-18T00:36:17;10.00;;;5.38;;
26864;SDS011;40618;51.166;10.322;2022-12-18T00:38:46;10.65;;;5.45;;
26864;SDS011;40618;51.166;10.322;2022-12-18T00:41:13;10.27;;;5.45;;
26864;SDS011;40618;51.166;10.322;2022-12-18T00:44:04;12.85;;;5.07;;
26864;SDS011;40618;51.166;10.322;2022-12-18T00:46:31;16.60;;;6.70;;
26864;SDS011;40618;51.166;10.322;2022-12-18T00:48:57;14.40;;;5.50;;
26864;SDS011;40618;51.166;10.322;2022-12-18T00:51:23;17.48;;;5.82;;
26864;SDS011;40618;51.166;10.322;2022-12-18T00:53:50;11.38;;;5.03;;
26864;SDS011;40618;51.166;10.322;2022-12-18T00:56:17;13.82;;;5.15;;
26864;SDS011;40618;51.166;10.322;2022-12-18T00:58:46;14.05;;;6.03;;
26864;SDS011;40618;51.166;10.322;2022-12-18T01:01:12;14.27;;;5.50;;
26864;SDS011;40618;51.166;10.322;2022-12-18T01:03:38;10.68;;;5.03;;
26864;SDS011;40618;51.166;10.322;2022-12-18T01:06:07;15.63;;;5.18;;
26864;SDS011;40618;51.166;10.322;2022-12-18T01:08:35;11.23;;;4.70;;
26864;SDS011;40618;51.166;10.322;2022-12-18T01:11:06;14.48;;;5.60;;
26864;SDS011;40618;51.166;10.322;2022-12-18T01:13:34;12.35;;;5.35;;
26864;SDS011;40618;51.166;10.322;2022-12-18T01:16:00;13.23;;;5.70;;
26864;SDS011;40618;51.166;10.322;2022-12-18T01:18:26;9.18;;;4.95;;
26864;SDS011;40618;51.166;10.322;2022-12-18T01:20:51;13.43;;;5.07;;
26864;SDS011;40618;51.166;10.322;2022-12-18T01:23:17;14.07;;;5.35;;
26864;SDS011;40618;51.166;10.322;2022-12-18T01:25:42;12.23;;;5.10;;
26864;SDS011;40618;51.166;10.322;2022-12-18T01:28:08;9.73;;;4.70;;
26864;SDS011;40618;51.166;10.322;2022-12-18T01:30:34;14.48;;;5.03;;
26864;SDS011;40618;51.166;10.322;2022-12-18T01:33:00;9.73;;;4.78;;
26864;SDS011;40618;51.166;10.322;2022-12-18T01:35:25;11.10;;;4.38;;
26864;SDS011;40618;51.166;10.322;2022-12-18T01:37:54;10.95;;;4.28;;
26864;SDS011;40618;51.166;10.322;2022-12-18T01:40:20;11.93;;;4.50;;
26864;SDS011;40618;51.166;10.322;2022-12-18T01:42:50;9.50;;;4.38;;
26864;SDS011;40618;51.166;10.322;2022-12-18T01:45:25;12.95;;;4.07;;
26864;SDS011;40618;51.166;10.322;2022-12-18T01:50:33;10.75;;;5.00;;
26864;SDS011;40618;51.166;10.322;2022-12-18T01:55:43;14.10;;;5.45;;
26864;SDS011;40618;51.166;10.322;2022-12-18T01:58:15;13.45;;;5.22;;
26864;SDS011;40618;51.166;10.322;2022-12-18T02:00:43;13.43;;;5.82;;
26864;SDS011;40618;51.166;10.322;2022-12-18T02:03:08;8.68;;;4.70;;
26864;SDS011;40618;51.166;10.322;2022-12-18T02:09:12;13.45;;;6.20;;
26864;SDS011;40618;51.166;10.322;2022-12-18T02:17:38;13.40;;;5.05;;
26864;SDS011;40618;51.166;10.322;2022-12-18T02:20:22;6.28;;;3.10;;
26864;SDS011;40618;51.166;10.322;2022-12-18T02:23:06;8.52;;;3.67;;
26864;SDS011;40618;51.166;10.322;2022-12-18T02:28:51;7.10;;;3.65;;
26864;SDS011;40618;51.166;10.322;2022-12-18T02:31:43;8.95;;;3.95;;
26864;SDS011;40618;51.166;10.322;2022-12-18T02:34:17;9.80;;;3.95;;
26864;SDS011;40618;51.166;10.322;2022-12-18T02:36:47;8.63;;;4.03;;
26864;SDS011;40618;51.166;10.322;2022-12-18T02:39:15;9.38;;;4.10;;
26864;SDS011;40618;51.166;10.322;2022-12-18T02:41:42;10.15;;;3.72;;
26864;SDS011;40618;51.166;10.322;2022-12-18T02:44:10;9.05;;;4.13;;
26864;SDS011;40618;51.166;10.322;2022-12-18T02:46:42;9.88;;;3.80;;
26864;SDS011;40618;51.166;10.322;2022-12-18T02:52:06;12.38;;;4.03;;
26864;SDS011;40618;51.166;10.322;2022-12-18T02:54:57;8.77;;;3.78;;
26864;SDS011;40618;51.166;10.322;2022-12-18T02:58:13;11.65;;;4.78;;
26864;SDS011;40618;51.166;10.322;2022-12-18T03:04:18;8.20;;;4.18;;
26864;SDS011;40618;51.166;10.322;2022-12-18T03:06:49;7.03;;;3.83;;
26864;SDS011;40618;51.166;10.322;2022-12-18T03:09:24;9.40;;;3.92;;
26864;SDS011;40618;51.166;10.322;2022-12-18T03:12:24;8.63;;;4.07;;
26864;SDS011;40618;51.166;10.322;2022-12-18T03:17:32;6.97;;;3.50;;
26864;SDS011;40618;51.166;10.322;2022-12-18T03:20:04;6.70;;;3.53;;
26864;SDS011;40618;51.166;10.322;2022-12-18T03:22:35;8.85;;;3.60;;
26864;SDS011;40618;51.166;10.322;2022-12-18T03:25:05;16.33;;;4.00;;
26864;SDS011;40618;51.166;10.322;2022-12-18T03:27:36;8.77;;;3.90;;
26864;SDS011;40618;51.166;10.322;2022-12-18T03:30:09;6.88;;;3.80;;
26864;SDS011;40618;51.166;10.322;2022-12-18T03:35:31;6.80;;;4.00;;
26864;SDS011;40618;51.166;10.322;2022-12-18T03:38:03;7.25;;;3.85;;
26864;SDS011;40618;51.166;10.322;2022-12-18T03:46:25;14.73;;;3.95;;
26864;SDS011;40618;51.166;10.322;2022-12-18T03:49:45;8.55;;;3.38;;
26864;SDS011;40618;51.166;10.322;2022-12-18T03:52:11;8.02;;;3.45;;
26864;SDS011;40618;51.166;10.322;2022-12-18T03:54:47;7.13;;;3.10;;
26864;SDS011;40618;51.166;10.322;2022-12-18T03:57:14;10.30;;;3.45;;
26864;SDS011;40618;51.166;10.322;2022-12-18T03:59:46;5.88;;;3.08;;
26864;SDS011;40618;51.166;10.322;2022-12-18T04:02:16;8.15;;;3.10;;
26864;SDS011;40618;51.166;10.322;2022-12-18T04:04:43;6.72;;;3.35;;
26864;SDS011;40618;51.166;10.322;2022-12-18T04:07:12;6.65;;;3.13;;
26864;SDS011;40618;51.166;10.322;2022-12-18T04:09:39;5.20;;;2.60;;
26864;SDS011;40618;51.166;10.322;2022-12-18T04:12:08;6.70;;;2.95;;
26864;SDS011;40618;51.166;10.322;2022-12-18T04:14:34;6.80;;;2.67;;
26864;SDS011;40618;51.166;10.322;2022-12-18T04:17:01;8.13;;;2.90;;
26864;SDS011;40618;51.166;10.322;2022-12-18T04:19:27;8.63;;;2.97;;
26864;SDS011;40618;51.166;10.322;2022-12-18T04:21:53;4.13;;;2.47;;
26864;SDS011;40618;51.166;10.322;2022-12-18T04:24:19;6.45;;;2.75;;
26864;SDS011;40618;51.166;10.322;2022-12-18T04:26:45;8.55;;;3.40;;
26864;SDS011;40618;51.166;10.322;2022-12-18T04:29:10;6.00;;;3.30;;
26864;SDS011;40618;51.166;10.322;2022-12-18T04:31:36;7.97;;;3.35;;
26864;SDS011;40618;51.166;10.322;2022-12-18T04:34:02;10.70;;;2.90;;
26864;SDS011;40618;51.166;10.322;2022-12-18T04:36:28;7.32;;;2.88;;
26864;SDS011;40618;51.166;10.322;2022-12-18T04:38:54;5.50;;;2.40;;
26864;SDS011;40618;51.166;10.322;2022-12-18T04:41:20;6.03;;;2.55;;
26864;SDS011;40618;51.166;10.322;2022-12-18T04:43:45;5.07;;;2.28;;
26864;SDS011;40618;51.166;10.322;2022-12-18T04:46:11;6.60;;;2.40;;
26864;SDS011;40618;51.166;10.322;2022-12-18T04:48:37;5.82;;;2.55;;
26864;SDS011;40618;51.166;10.322;2022-12-18T04:51:04;5.75;;;2.33;;
26864;SDS011;40618;51.166;10.322;2022-12-18T04:53:31;5.95;;;2.28;;
26864;SDS011;40618;51.166;10.322;2022-12-18T04:56:06;5.32;;;2.40;;
26864;SDS011;40618;51.166;10.322;2022-12-18T04:58:35;3.70;;;1.85;;
26864;SDS011;40618;51.166;10.322;2022-12-18T05:01:03;5.65;;;2.22;;
26864;SDS011;40618;51.166;10.322;2022-12-18T05:03:29;5.25;;;2.15;;
26864;SDS011;40618;51.166;10.322;2022-12-18T05:05:55;6.78;;;2.75;;
26864;SDS011;40618;51.166;10.322;2022-12-18T05:08:21;4.65;;;2.42;;
26864;SDS011;40618;51.166;10.322;2022-12-18T05:10:47;7.82;;;2.28;;
26864;SDS011;40618;51.166;10.322;2022-12-18T05:13:13;8.02;;;3.10;;
26864;SDS011;40618;51.166;10.322;2022-12-18T05:15:38;5.63;;;2.30;;
26864;SDS011;40618;51.166;10.322;2022-12-18T05:18:04;5.75;;;2.40;;
26864;SDS011;40618;51.166;10.322;2022-12-18T05:20:30;5.65;;;1.80;;
26864;SDS011;40618;51.166;10.322;2022-12-18T05:22:56;15.10;;;6.38;;
26864;SDS011;40618;51.166;10.322;2022-12-18T05:25:22;11.95;;;5.32;;
26864;SDS011;40618;51.166;10.322;2022-12-18T05:27:49;7.93;;;4.68;;
26864;SDS011;40618;51.166;10.322;2022-12-18T05:30:15;8.32;;;3.55;;
26864;SDS011;40618;51.166;10.322;2022-12-18T05:32:41;6.93;;;3.05;;
26864;SDS011;40618;51.166;10.322;2022-12-18T05:35:08;7.85;;;3.65;;
26864;SDS011;40618;51.166;10.322;2022-12-18T05:37:35;13.25;;;3.60;;
26864;SDS011;40618;51.166;10.322;2022-12-18T05:40:01;11.60;;;4.25;;
26864;SDS011;40618;51.166;10.322;2022-12-18T05:42:29;6.90;;;3.42;;
26864;SDS011;40618;51.166;10.322;2022-12-18T05:44:56;6.93;;;3.53;;
26864;SDS011;40618;51.166;10.322;2022-12-18T05:47:21;8.35;;;3.63;;
26864;SDS011;40618;51.166;10.322;2022-12-18T05:49:47;8.10;;;3.30;;
26864;SDS011;40618;51.166;10.322;2022-12-18T05:52:12;8.15;;;3.60;;
26864;SDS011;40618;51.166;10.322;2022-12-18T05:54:38;10.07;;;3.80;;
26864;SDS011;40618;51.166;10.322;2022-12-18T05:57:04;10.50;;;3.53;;
26864;SDS011;40618;51.166;10.322;2022-12-18T05:59:30;5.65;;;3.38;;
26864;SDS011;40618;51.166;10.322;2022-12-18T06:01:55;7.38;;;2.78;;
26864;SDS011;40618;51.166;10.322;2022-12-18T06:04:21;7.55;;;3.67;;
26864;SDS011;40618;51.166;10.322;2022-12-18T06:06:47;6.45;;;3.92;;
26864;SDS011;40618;51.166;10.322;2022-12-18T06:09:12;10.52;;;3.33;;
26864;SDS011;40618;51.166;10.322;2022-12-18T06:11:38;7.88;;;4.05;;
26864;SDS011;40618;51.166;10.322;2022-12-18T06:14:05;7.03;;;3.40;;
26864;SDS011;40618;51.166;10.322;2022-12-18T06:16:31;8.05;;;3.45;;
26864;SDS011;40618;51.166;10.322;2022-12-18T06:18:58;10.30;;;4.05;;
26864;SDS011;40618;51.166;10.322;2022-12-18T06:21:25;8.95;;;4.43;;
26864;SDS011;40618;51.166;10.322;2022-12-18T06:23:52;6.32;;;3.83;;
26864;SDS011;40618;51.166;10.322;2022-12-18T06:26:17;6.88;;;4.10;;
26864;SDS011;40618;51.166;10.322;2022-12-18T06:28:43;10.43;;;4.65;;
26864;SDS011;40618;51.166;10.322;2022-12-18T06:31:09;11.25;;;5.95;;
26864;SDS011;40618;51.166;10.322;2022-12-18T06:33:36;9.65;;;5.85;;
26864;SDS011;40618;51.166;10.322;2022-12-18T06:36:06;13.80;;;6.35;;
26864;SDS011;40618;51.166;10.322;2022-12-18T06:38:37;12.18;;;6.90;;
26864;SDS011;40618;51.166;10.322;2022-12-18T06:41:09;13.45;;;8.00;;
26864;SDS011;40618;51.166;10.322;2022-12-18T06:43:44;11.02;;;7.43;;
26864;SDS011;40618;51.166;10.322;2022-12-18T06:46:10;14.75;;;7.40;;
26864;SDS011;40618;51.166;10.322;2022-12-18T06:48:37;11.85;;;5.53;;
26864;SDS011;40618;51.166;10.322;2022-12-18T06:51:03;7.93;;;3.92;;
26864;SDS011;40618;51.166;10.322;2022-12-18T06:53:29;7.45;;;3.50;;
26864;SDS011;40618;51.166;10.322;2022-12-18T06:56:01;6.88;;;4.38;;
26864;SDS011;40618;51.166;10.322;2022-12-18T06:58:29;10.98;;;4.40;;
26864;SDS011;40618;51.166;10.322;2022-12-18T07:00:59;9.68;;;4.43;;
26864;SDS011;40618;51.166;10.322;2022-12-18T07:03:26;6.70;;;3.38;;
26864;SDS011;40618;51.166;10.322;2022-12-18T07:05:52;6.68;;;3.45;;
26864;SDS011;40618;51.166;10.322;2022-12-18T07:08:18;8.45;;;4.38;;
26864;SDS011;40618;51.166;10.322;2022-12-18T07:10:43;8.30;;;4.45;;
26864;SDS011;40618;51.166;10.322;2022-12-18T07:13:09;10.32;;;4.93;;
26864;SDS011;40618;51.166;10.322;2022-12-18T07:15:35;7.88;;;4.40;;
26864;SDS011;40618;51.166;10.322;2022-12-18T07:18:01;6.43;;;4.03;;
26864;SDS011;40618;51.166;10.322;2022-12-18T07:20:27;7.18;;;3.25;;
26864;SDS011;40618;51.166;10.322;2022-12-18T07:22:52;7.25;;;4.18;;
26864;SDS011;40618;51.166;10.322;2022-12-18T07:25:18;7.55;;;3.92;;
26864;SDS011;40618;51.166;10.322;2022-12-18T07:27:44;9.73;;;4.63;;
26864;SDS011;40618;51.166;10.322;2022-12-18T07:30:09;12.82;;;3.95;;
26864;SDS011;40618;51.166;10.322;2022-12-18T07:32:35;9.10;;;4.10;;
26864;SDS011;40618;51.166;10.322;2022-12-18T07:35:01;7.95;;;4.13;;
26864;SDS011;40618;51.166;10.322;2022-12-18T07:37:27;9.65;;;4.13;;
26864;SDS011;40618;51.166;10.322;2022-12-18T07:39:53;9.23;;;3.90;;
26864;SDS011;40618;51.166;10.322;2022-12-18T07:42:18;7.80;;;2.90;;
26864;SDS011;40618;51.166;10.322;2022-12-18T07:44:56;7.82;;;3.40;;
26864;SDS011;40618;51.166;10.322;2022-12-18T07:47:26;8.93;;;3.45;;
26864;SDS011;40618;51.166;10.322;2022-12-18T07:49:54;9.80;;;5.68;;
26864;SDS011;40618;51.166;10.322;2022-12-18T07:52:19;7.20;;;3.88;;
26864;SDS011;40618;51.166;10.322;2022-12-18T07:54:46;7.32;;;3.90;;
26864;SDS011;40618;51.166;10.322;2022-12-18T07:57:14;25.48;;;13.07;;
26864;SDS011;40618;51.166;10.322;2022-12-18T07:59:41;11.25;;;6.53;;
26864;SDS011;40618;51.166;10.322;2022-12-18T08:02:06;6.28;;;3.67;;
26864;SDS011;40618;51.166;10.322;2022-12-18T08:04:32;20.65;;;5.88;;
26864;SDS011;40618;51.166;10.322;2022-12-18T08:06:58;21.35;;;8.40;;
26864;SDS011;40618;51.166;10.322;2022-12-18T08:09:23;20.35;;;8.48;;
26864;SDS011;40618;51.166;10.322;2022-12-18T08:11:49;15.52;;;7.15;;
26864;SDS011;40618;51.166;10.322;2022-12-18T08:14:15;13.95;;;6.75;;
26864;SDS011;40618;51.166;10.322;2022-12-18T08:16:40;17.90;;;5.18;;
26864;SDS011;40618;51.166;10.322;2022-12-18T08:19:06;9.70;;;4.60;;
26864;SDS011;40618;51.166;10.322;2022-12-18T08:21:31;8.77;;;3.88;;
26864;SDS011;40618;51.166;10.322;2022-12-18T08:23:58;7.25;;;3.95;;
26864;SDS011;40618;51.166;10.322;2022-12-18T08:26:27;9.18;;;5.30;;
26864;SDS011;40618;51.166;10.322;2022-12-18T08:28:56;8.10;;;4.45;;
26864;SDS011;40618;51.166;10.322;2022-12-18T08:31:24;7.53;;;4.90;;
26864;SDS011;40618;51.166;10.322;2022-12-18T08:33:52;8.30;;;4.20;;
26864;SDS011;40618;51.166;10.322;2022-12-18T08:36:20;22.00;;;8.68;;
26864;SDS011;40618;51.166;10.322;2022-12-18T08:38:46;28.90;;;10.60;;
26864;SDS011;40618;51.166;10.322;2022-12-18T08:41:13;49.08;;;20.90;;
26864;SDS011;40618;51.166;10.322;2022-12-18T08:43:41;81.65;;;35.75;;
26864;SDS011;40618;51.166;10.322;2022-12-18T08:46:26;27.05;;;11.32;;
26864;SDS011;40618;51.166;10.322;2022-12-18T08:48:58;32.72;;;15.15;;
26864;SDS011;40618;51.166;10.322;2022-12-18T08:51:24;28.80;;;13.32;;
26864;SDS011;40618;51.166;10.322;2022-12-18T08:53:50;16.15;;;8.10;;
26864;SDS011;40618;51.166;10.322;2022-12-18T08:56:15;27.25;;;12.60;;
26864;SDS011;40618;51.166;10.322;2022-12-18T08:58:41;14.63;;;7.15;;
26864;SDS011;40618;51.166;10.322;2022-12-18T09:01:08;19.83;;;9.02;;
26864;SDS011;40618;51.166;10.322;2022-12-18T09:03:36;38.72;;;17.10;;
26864;SDS011;40618;51.166;10.322;2022-12-18T09:06:03;51.83;;;24.10;;
26864;SDS011;40618;51.166;10.322;2022-12-18T09:08:30;42.35;;;19.23;;
26864;SDS011;40618;51.166;10.322;2022-12-18T09:10:55;41.50;;;18.70;;
26864;SDS011;40618;51.166;10.322;2022-12-18T09:13:21;38.67;;;18.92;;
26864;SDS011;40618;51.166;10.322;2022-12-18T09:15:49;34.90;;;18.50;;
26864;SDS011;40618;51.166;10.322;2022-12-18T09:18:18;93.13;;;46.45;;
26864;SDS011;40618;51.166;10.322;2022-12-18T09:20:46;88.15;;;42.50;;
26864;SDS011;40618;51.166;10.322;2022-12-18T09:23:12;47.47;;;23.08;;
26864;SDS011;40618;51.166;10.322;2022-12-18T09:25:39;43.85;;;21.90;;
26864;SDS011;40618;51.166;10.322;2022-12-18T09:28:06;38.13;;;17.42;;
26864;SDS011;40618;51.166;10.322;2022-12-18T09:30:39;29.70;;;13.15;;
26864;SDS011;40618;51.166;10.322;2022-12-18T09:33:09;54.38;;;22.65;;
26864;SDS011;40618;51.166;10.322;2022-12-18T09:35:38;30.65;;;11.60;;
26864;SDS011;40618;51.166;10.322;2022-12-18T09:38:06;36.17;;;17.05;;
26864;SDS011;40618;51.166;10.322;2022-12-18T09:40:36;51.58;;;20.88;;
26864;SDS011;40618;51.166;10.322;2022-12-18T09:43:12;32.47;;;15.02;;
26864;SDS011;40618;51.166;10.322;2022-12-18T09:45:46;27.27;;;13.60;;
26864;SDS011;40618;51.166;10.322;2022-12-18T09:48:28;34.25;;;16.20;;
26864;SDS011;40618;51.166;10.322;2022-12-18T09:51:02;60.92;;;22.83;;
26864;SDS011;40618;51.166;10.322;2022-12-18T09:53:36;62.08;;;22.23;;
26864;SDS011;40618;51.166;10.322;2022-12-18T09:56:05;58.35;;;24.08;;
26864;SDS011;40618;51.166;10.322;2022-12-18T09:58:41;35.53;;;14.98;;
26864;SDS011;40618;51.166;10.322;2022-12-18T10:01:14;46.90;;;17.15;;
26864;SDS011;40618;51.166;10.322;2022-12-18T10:03:47;45.35;;;17.27;;
26864;SDS011;40618;51.166;10.322;2022-12-18T10:06:14;57.85;;;26.92;;
26864;SDS011;40618;51.166;10.322;2022-12-18T10:20:38;57.90;;;24.13;;
26864;SDS011;40618;51.166;10.322;2022-12-18T10:26:26;53.70;;;22.67;;
26864;SDS011;40618;51.166;10.322;2022-12-18T10:28:51;45.92;;;19.25;;
26864;SDS011;40618;51.166;10.322;2022-12-18T10:31:20;41.85;;;16.13;;
26864;SDS011;40618;51.166;10.322;2022-12-18T10:33:48;29.02;;;13.32;;
26864;SDS011;40618;51.166;10.322;2022-12-18T10:36:14;30.70;;;13.63;;
26864;SDS011;40618;51.166;10.322;2022-12-18T10:38:40;23.50;;;11.73;;
26864;SDS011;40618;51.166;10.322;2022-12-18T10:41:08;30.95;;;11.05;;
26864;SDS011;40618;51.166;10.322;2022-12-18T10:47:02;17.92;;;8.43;;
26864;SDS011;40618;51.166;10.322;2022-12-18T10:49:32;18.30;;;9.18;;
26864;SDS011;40618;51.166;10.322;2022-12-18T10:54:51;22.50;;;10.23;;
26864;SDS011;40618;51.166;10.322;2022-12-18T10:57:33;16.52;;;8.00;;
26864;SDS011;40618;51.166;10.322;2022-12-18T11:03:07;20.05;;;9.40;;
26864;SDS011;40618;51.166;10.322;2022-12-18T11:06:07;28.33;;;9.07;;
26864;SDS011;40618;51.166;10.322;2022-12-18T11:08:35;15.02;;;8.40;;
26864;SDS011;40618;51.166;10.322;2022-12-18T11:11:01;21.20;;;7.45;;
26864;SDS011;40618;51.166;10.322;2022-12-18T11:13:29;10.32;;;6.22;;
26864;SDS011;40618;51.166;10.322;2022-12-18T11:15:57;11.48;;;5.80;;
26864;SDS011;40618;51.166;10.322;2022-12-18T11:23:26;9.38;;;5.30;;
26864;SDS011;40618;51.166;10.322;2022-12-18T11:25:57;29.08;;;12.98;;
26864;SDS011;40618;51.166;10.322;2022-12-18T11:31:15;18.08;;;8.13;;
26864;SDS011;40618;51.166;10.322;2022-12-18T11:33:42;20.75;;;10.32;;
26864;SDS011;40618;51.166;10.322;2022-12-18T11:36:24;23.42;;;10.80;;
26864;SDS011;40618;51.166;10.322;2022-12-18T11:39:03;28.83;;;12.65;;
26864;SDS011;40618;51.166;10.322;2022-12-18T11:42:23;21.27;;;9.93;;
26864;SDS011;40618;51.166;10.322;2022-12-18T11:45:02;19.35;;;8.50;;
26864;SDS011;40618;51.166;10.322;2022-12-18T11:50:28;16.58;;;7.90;;
26864;SDS011;40618;51.166;10.322;2022-12-18T11:53:19;22.60;;;9.35;;
26864;SDS011;40618;51.166;10.322;2022-12-18T11:56:47;38.25;;;14.35;;
26864;SDS011;40618;51.166;10.322;2022-12-18T12:01:52;36.38;;;14.25;;
26864;SDS011;40618;51.166;10.322;2022-12-18T12:10:22;41.17;;;16.65;;
26864;SDS011;40618;51.166;10.322;2022-12-18T12:17:08;32.35;;;14.80;;
26864;SDS011;40618;51.166;10.322;2022-12-18T12:25:33;17.23;;;9.50;;
26864;SDS011;40618;51.166;10.322;2022-12-18T12:30:27;25.85;;;13.15;;
26864;SDS011;40618;51.166;10.322;2022-12-18T12:38:54;21.75;;;10.02;;
26864;SDS011;40618;51.166;10.322;2022-12-18T12:41:26;20.05;;;10.63;;
26864;SDS011;40618;51.166;10.322;2022-12-18T12:44:20;18.30;;;9.85;;
26864;SDS011;40618;51.166;10.322;2022-12-18T12:46:57;21.70;;;10.20;;
26864;SDS011;40618;51.166;10.322;2022-12-18T12:49:55;18.05;;;9.35;;
26864;SDS011;40618;51.166;10.322;2022-12-18T12:55:26;22.35;;;10.98;;
26864;SDS011;40618;51.166;10.322;2022-12-18T13:00:44;17.33;;;8.75;;
26864;SDS011;40618;51.166;10.322;2022-12-18T13:03:34;17.52;;;8.50;;
26864;SDS011;40618;51.166;10.322;2022-12-18T13:06:09;17.10;;;9.57;;
26864;SDS011;40618;51.166;10.322;2022-12-18T13:09:15;21.02;;;11.23;;
26864;SDS011;40618;51.166;10.322;2022-12-18T13:11:42;19.55;;;9.05;;
26864;SDS011;40618;51.166;10.322;2022-12-18T13:14:34;18.63;;;9.05;;
26864;SDS011;40618;51.166;10.322;2022-12-18T13:17:16;36.05;;;17.60;;
26864;SDS011;40618;51.166;10.322;2022-12-18T13:19:48;36.35;;;17.60;;
26864;SDS011;40618;51.166;10.322;2022-12-18T13:22:45;33.83;;;18.85;;
26864;SDS011;40618;51.166;10.322;2022-12-18T13:25:32;49.83;;;26.17;;
26864;SDS011;40618;51.166;10.322;2022-12-18T13:28:09;32.13;;;21.77;;
26864;SDS011;40618;51.166;10.322;2022-12-18T13:30:42;22.95;;;12.75;;
26864;SDS011;40618;51.166;10.322;2022-12-18T13:38:23;21.90;;;11.60;;
26864;SDS011;40618;51.166;10.322;2022-12-18T13:43:49;19.23;;;10.00;;
26864;SDS011;40618;51.166;10.322;2022-12-18T13:48:54;20.95;;;11.43;;
26864;SDS011;40618;51.166;10.322;2022-12-18T13:51:32;18.15;;;8.65;;
26864;SDS011;40618;51.166;10.322;2022-12-18T13:54:00;17.10;;;9.23;;
26864;SDS011;40618;51.166;10.322;2022-12-18T13:56:46;18.73;;;9.50;;
26864;SDS011;40618;51.166;10.322;2022-12-18T13:59:18;17.92;;;10.45;;
26864;SDS011;40618;51.166;10.322;2022-12-18T14:01:58;20.33;;;10.45;;
26864;SDS011;40618;51.166;10.322;2022-12-18T14:04:34;31.95;;;16.00;;
26864;SDS011;40618;51.166;10.322;2022-12-18T14:07:04;23.23;;;12.25;;
26864;SDS011;40618;51.166;10.322;2022-12-18T14:09:36;29.65;;;14.00;;
26864;SDS011;40618;51.166;10.322;2022-12-18T14:12:16;17.35;;;10.75;;
26864;SDS011;40618;51.166;10.322;2022-12-18T14:15:03;22.25;;;12.15;;
26864;SDS011;40618;51.166;10.322;2022-12-18T14:17:42;17.33;;;9.48;;
26864;SDS011;40618;51.166;10.322;2022-12-18T14:20:12;18.05;;;8.43;;
26864;SDS011;40618;51.166;10.322;2022-12-18T14:22:42;13.32;;;8.00;;
26864;SDS011;40618;51.166;10.322;2022-12-18T14:25:22;13.57;;;7.53;;
26864;SDS011;40618;51.166;10.322;2022-12-18T14:27:52;14.73;;;7.90;;
26864;SDS011;40618;51.166;10.322;2022-12-18T14:35:39;42.33;;;19.48;;
26864;SDS011;40618;51.166;10.322;2022-12-18T14:41:00;18.63;;;9.43;;
26864;SDS011;40618;51.166;10.322;2022-12-18T14:43:35;16.35;;;7.97;;
26864;SDS011;40618;51.166;10.322;2022-12-18T14:48:57;22.60;;;9.85;;
26864;SDS011;40618;51.166;10.322;2022-12-18T14:51:33;19.80;;;8.85;;
26864;SDS011;40618;51.166;10.322;2022-12-18T14:56:27;17.85;;;8.57;;
26864;SDS011;40618;51.166;10.322;2022-12-18T14:59:00;16.40;;;8.50;;
26864;SDS011;40618;51.166;10.322;2022-12-18T15:01:30;15.45;;;8.88;;
26864;SDS011;40618;51.166;10.322;2022-12-18T15:04:02;22.00;;;10.13;;
26864;SDS011;40618;51.166;10.322;2022-12-18T15:06:47;24.23;;;11.02;;
26864;SDS011;40618;51.166;10.322;2022-12-18T15:09:24;23.00;;;10.65;;
26864;SDS011;40618;51.166;10.322;2022-12-18T15:11:55;24.65;;;11.30;;
26864;SDS011;40618;51.166;10.322;2022-12-18T15:16:56;31.52;;;14.73;;
26864;SDS011;40618;51.166;10.322;2022-12-18T15:19:28;31.67;;;12.70;;
26864;SDS011;40618;51.166;10.322;2022-12-18T15:24:38;20.88;;;10.07;;
26864;SDS011;40618;51.166;10.322;2022-12-18T15:27:04;20.27;;;9.43;;
26864;SDS011;40618;51.166;10.322;2022-12-18T15:29:30;17.30;;;9.10;;
26864;SDS011;40618;51.166;10.322;2022-12-18T15:31:59;11.20;;;6.57;;
26864;SDS011;40618;51.166;10.322;2022-12-18T15:34:25;12.05;;;7.15;;
26864;SDS011;40618;51.166;10.322;2022-12-18T15:36:53;21.45;;;9.25;;
26864;SDS011;40618;51.166;10.322;2022-12-18T15:39:18;29.80;;;12.38;;
26864;SDS011;40618;51.166;10.322;2022-12-18T15:41:44;17.88;;;8.75;;
26864;SDS011;40618;51.166;10.322;2022-12-18T15:44:30;15.18;;;8.98;;
26864;SDS011;40618;51.166;10.322;2022-12-18T15:46:56;15.73;;;8.60;;
26864;SDS011;40618;51.166;10.322;2022-12-18T15:49:23;15.27;;;8.45;;
26864;SDS011;40618;51.166;10.322;2022-12-18T15:51:50;15.70;;;9.57;;
26864;SDS011;40618;51.166;10.322;2022-12-18T15:54:19;23.58;;;12.15;;
26864;SDS011;40618;51.166;10.322;2022-12-18T15:57:08;36.45;;;16.73;;
26864;SDS011;40618;51.166;10.322;2022-12-18T15:59:50;83.70;;;36.83;;
26864;SDS011;40618;51.166;10.322;2022-12-18T16:02:21;35.00;;;17.50;;
26864;SDS011;40618;51.166;10.322;2022-12-18T16:04:50;33.75;;;14.82;;
26864;SDS011;40618;51.166;10.322;2022-12-18T16:07:18;29.77;;;13.43;;
26864;SDS011;40618;51.166;10.322;2022-12-18T16:09:44;29.55;;;14.25;;
26864;SDS011;40618;51.166;10.322;2022-12-18T16:12:21;30.65;;;15.07;;
26864;SDS011;40618;51.166;10.322;2022-12-18T16:14:50;26.83;;;13.05;;
26864;SDS011;40618;51.166;10.322;2022-12-18T16:17:16;25.65;;;13.43;;
26864;SDS011;40618;51.166;10.322;2022-12-18T16:19:42;26.75;;;13.77;;
26864;SDS011;40618;51.166;10.322;2022-12-18T16:22:20;27.52;;;14.50;;
26864;SDS011;40618;51.166;10.322;2022-12-18T16:24:50;51.55;;;21.13;;
26864;SDS011;40618;51.166;10.322;2022-12-18T16:27:19;50.87;;;24.63;;
26864;SDS011;40618;51.166;10.322;2022-12-18T16:29:47;33.30;;;16.13;;
26864;SDS011;40618;51.166;10.322;2022-12-18T16:32:22;26.73;;;14.55;;
26864;SDS011;40618;51.166;10.322;2022-12-18T16:34:49;27.15;;;13.63;;
26864;SDS011;40618;51.166;10.322;2022-12-18T16:37:15;28.10;;;15.43;;
26864;SDS011;40618;51.166;10.322;2022-12-18T16:39:42;34.97;;;15.73;;
26864;SDS011;40618;51.166;10.322;2022-12-18T16:42:13;30.95;;;14.93;;
26864;SDS011;40618;51.166;10.322;2022-12-18T16:44:44;31.35;;;14.43;;
26864;SDS011;40618;51.166;10.322;2022-12-18T16:47:13;36.83;;;19.25;;
26864;SDS011;40618;51.166;10.322;2022-12-18T16:50:23;28.73;;;15.93;;
26864;SDS011;40618;51.166;10.322;2022-12-18T16:52:52;32.28;;;15.93;;
26864;SDS011;40618;51.166;10.322;2022-12-18T16:55:19;25.23;;;13.80;;